Time;durP1;ratioP1;P1;durP2;ratioP2;P2;SDS_P1;SDS_P2;PMS_P1;PMS_P2;Temp;Humidity;BMP_temperature;BMP_pressure;BME280_temperature;BME280_humidity;BME280_pressure;Samples;Min_cycle;Max_cycle;Signal;HPM_P1;HPM_P2
2021/07/14 00:01:42;;;;;;;1999.90;999.90;;;6.40;99.90;;;;;;5053632;28;20709;-40
2021/07/14 00:04:09;;;;;;;1999.90;999.90;;;6.30;99.90;;;;;;5053819;28;20177;-40
2021/07/14 00:06:37;;;;;;;1999.90;999.90;;;6.20;99.90;;;;;;5053755;28;20234;-39
2021/07/14 00:09:10;;;;;;;1999.90;999.90;;;6.20;99.90;;;;;;5053637;28;20243;-40
2021/07/14 00:11:41;;;;;;;1999.90;999.90;;;6.10;99.90;;;;;;5053593;28;20167;-39
2021/07/14 00:14:29;;;;;;;1999.90;999.90;;;6.10;99.90;;;;;;5053791;28;20167;-40
2021/07/14 00:22:34;;;;;;;1999.90;999.90;;;6.10;99.90;;;;;;5053642;28;20169;-40
2021/07/14 00:25:03;;;;;;;1999.90;999.90;;;6.10;99.90;;;;;;5053539;28;20174;-40
2021/07/14 00:27:30;;;;;;;1999.90;999.90;;;6.00;99.90;;;;;;5053374;28;20169;-39
2021/07/14 00:29:59;;;;;;;1999.90;999.90;;;6.00;99.90;;;;;;5053303;28;20258;-39
2021/07/14 00:32:27;;;;;;;1999.90;999.90;;;5.90;99.90;;;;;;5053188;28;20191;-39
2021/07/14 00:34:55;;;;;;;1999.90;999.90;;;6.00;99.90;;;;;;5053218;28;20632;-40
2021/07/14 00:37:22;;;;;;;1999.90;999.90;;;6.00;99.90;;;;;;5053192;28;20544;-40
2021/07/14 00:39:55;;;;;;;1999.90;999.90;;;6.00;99.90;;;;;;5053123;28;20180;-40
2021/07/14 00:42:23;;;;;;;1999.90;999.90;;;5.80;99.90;;;;;;5053329;28;20169;-39
2021/07/14 00:44:51;;;;;;;1999.90;999.90;;;5.80;99.90;;;;;;5053166;28;20166;-39
2021/07/14 00:47:29;;;;;;;1999.90;999.90;;;5.80;99.90;;;;;;5053127;28;20179;-40
2021/07/14 00:49:56;;;;;;;1999.90;999.90;;;5.70;99.90;;;;;;5052840;28;20206;-40
2021/07/14 00:52:23;;;;;;;1999.90;999.90;;;5.70;99.90;;;;;;5053034;28;20260;-41
2021/07/14 00:54:51;;;;;;;1999.90;999.90;;;5.80;99.90;;;;;;5052552;28;20174;-40
2021/07/14 00:57:20;;;;;;;1999.90;999.90;;;5.80;99.90;;;;;;5052567;28;20173;-41
2021/07/14 00:59:47;;;;;;;1999.90;999.90;;;5.70;99.90;;;;;;5052759;28;20181;-41
2021/07/14 01:02:14;;;;;;;1999.90;999.90;;;5.70;99.90;;;;;;5052655;28;20228;-41
2021/07/14 01:04:47;;;;;;;1999.90;999.90;;;5.60;99.90;;;;;;5052836;28;20162;-40
2021/07/14 01:07:23;;;;;;;1999.90;999.90;;;5.70;99.90;;;;;;5052809;28;20197;-40
2021/07/14 01:10:05;;;;;;;1999.90;999.90;;;5.60;99.90;;;;;;5052728;28;20201;-40
2021/07/14 01:12:50;;;;;;;1999.90;999.90;;;5.70;99.90;;;;;;5052682;28;20163;-41
2021/07/14 01:15:19;;;;;;;1999.90;999.90;;;5.70;99.90;;;;;;5052840;28;20613;-39
2021/07/14 01:17:54;;;;;;;1999.90;999.90;;;5.60;99.90;;;;;;5052760;28;20256;-39
2021/07/14 01:20:53;;;;;;;1999.90;999.90;;;5.50;99.90;;;;;;5052746;28;20227;-39
2021/07/14 01:23:54;;;;;;;1999.90;999.90;;;5.60;99.90;;;;;;5052772;28;20188;-39
2021/07/14 01:26:55;;;;;;;1999.90;999.90;;;5.50;99.90;;;;;;5034787;28;20162;-39
2021/07/14 01:29:23;;;;;;;1999.90;999.90;;;5.60;99.90;;;;;;5052622;28;20317;-39
2021/07/14 01:31:53;;;;;;;1999.90;999.90;;;5.60;99.90;;;;;;5052584;28;20165;-39
2021/07/14 01:34:21;;;;;;;1999.90;999.90;;;5.60;99.90;;;;;;5052575;28;20168;-40
2021/07/14 01:36:51;;;;;;;1999.90;999.90;;;5.50;99.90;;;;;;5052489;28;20215;-39
2021/07/14 01:39:19;;;;;;;1999.90;999.90;;;5.40;99.90;;;;;;5052528;28;20655;-40
2021/07/14 01:41:49;;;;;;;1999.90;999.90;;;5.40;99.90;;;;;;5052723;28;20556;-39
2021/07/14 01:44:18;;;;;;;1999.90;999.90;;;5.50;99.90;;;;;;5052454;28;20503;-40
2021/07/14 01:46:46;;;;;;;1999.90;999.90;;;5.50;99.90;;;;;;5052453;28;20173;-39
2021/07/14 01:49:17;;;;;;;1999.90;999.90;;;5.50;99.90;;;;;;5052368;28;20206;-39
2021/07/14 01:51:50;;;;;;;1999.90;999.90;;;5.50;99.90;;;;;;5052532;28;20162;-39
2021/07/14 01:54:23;;;;;;;1999.90;999.90;;;5.60;99.90;;;;;;5052372;28;20197;-40
2021/07/14 01:56:51;;;;;;;1999.90;999.90;;;5.60;99.90;;;;;;5052321;28;20631;-39
2021/07/14 01:59:19;;;;;;;1999.90;999.90;;;5.50;99.90;;;;;;5052221;28;20307;-39
2021/07/14 02:01:47;;;;;;;1999.90;999.90;;;5.40;99.90;;;;;;5052084;28;20346;-39
2021/07/14 02:04:30;;;;;;;1999.90;999.90;;;5.40;99.90;;;;;;5052224;28;20227;-39
2021/07/14 02:07:24;;;;;;;1999.90;999.90;;;5.30;99.90;;;;;;5053386;28;20568;-39
2021/07/14 02:09:52;;;;;;;1999.90;999.90;;;5.30;99.90;;;;;;5055869;28;20229;-40
2021/07/14 02:12:22;;;;;;;1999.90;999.90;;;5.30;99.90;;;;;;5056022;28;20203;-39
2021/07/14 02:14:57;;;;;;;1999.90;999.90;;;5.30;99.90;;;;;;5056246;28;20158;-40
2021/07/14 02:17:29;;;;;;;1999.90;999.90;;;5.30;99.90;;;;;;5055825;28;20154;-39
2021/07/14 02:20:12;;;;;;;1999.90;999.90;;;5.30;99.90;;;;;;5056032;28;20237;-39
2021/07/14 02:22:39;;;;;;;1999.90;999.90;;;5.30;99.90;;;;;;5055579;28;20711;-39
2021/07/14 02:25:09;;;;;;;1999.90;999.90;;;5.30;99.90;;;;;;5055817;28;20179;-39
2021/07/14 02:27:37;;;;;;;1999.90;999.90;;;5.20;99.90;;;;;;5055927;28;20169;-39
2021/07/14 02:30:15;;;;;;;1999.90;999.90;;;5.30;99.90;;;;;;5055498;28;20208;-39
2021/07/14 02:32:43;;;;;;;1999.90;999.90;;;5.20;99.90;;;;;;5055666;28;20518;-39
2021/07/14 02:35:11;;;;;;;1999.90;999.90;;;5.10;99.90;;;;;;5055541;28;20169;-41
2021/07/14 02:37:58;;;;;;;1999.90;999.90;;;5.10;99.90;;;;;;5055452;28;20162;-39
2021/07/14 02:40:34;;;;;;;1999.90;999.90;;;5.10;99.90;;;;;;5055492;28;20153;-39
2021/07/14 02:43:04;;;;;;;1999.90;999.90;;;5.10;99.90;;;;;;5055378;28;20604;-41
2021/07/14 02:45:34;;;;;;;1999.90;999.90;;;5.00;99.90;;;;;;5055249;28;20203;-39
2021/07/14 02:48:02;;;;;;;1999.90;999.90;;;4.80;99.90;;;;;;5055243;28;20172;-39
2021/07/14 02:50:34;;;;;;;1999.90;999.90;;;4.80;99.90;;;;;;5055076;28;20213;-39
2021/07/14 02:53:22;;;;;;;1999.90;999.90;;;4.90;99.90;;;;;;5055082;28;20178;-41
2021/07/14 02:55:59;;;;;;;1999.90;999.90;;;4.80;99.90;;;;;;5055166;28;20168;-39
2021/07/14 02:58:31;;;;;;;1999.90;999.90;;;4.70;99.90;;;;;;5055153;28;20240;-39
2021/07/14 03:01:00;;;;;;;1999.90;999.90;;;4.70;99.90;;;;;;5054813;28;20746;-39
2021/07/14 03:03:27;;;;;;;1999.90;999.90;;;4.70;99.90;;;;;;5054957;28;20167;-39
2021/07/14 03:05:56;;;;;;;1999.90;999.90;;;4.70;99.90;;;;;;5054951;28;20184;-39
2021/07/14 03:08:28;;;;;;;1999.90;999.90;;;4.60;99.90;;;;;;5055004;28;20225;-40
2021/07/14 03:10:56;;;;;;;1999.90;999.90;;;4.60;99.90;;;;;;5054850;28;20173;-39
2021/07/14 03:13:29;;;;;;;1999.90;999.90;;;4.60;99.90;;;;;;5054706;28;20172;-41
2021/07/14 03:15:57;;;;;;;1999.90;999.90;;;4.60;99.90;;;;;;5054817;28;20190;-39
2021/07/14 03:18:28;;;;;;;1999.90;999.90;;;4.70;99.90;;;;;;5053774;28;20166;-40
2021/07/14 03:20:56;;;;;;;1999.90;999.90;;;4.60;99.90;;;;;;5054714;28;20193;-39
2021/07/14 03:23:24;;;;;;;1999.90;999.90;;;4.70;99.90;;;;;;5054670;28;20164;-39
2021/07/14 03:25:56;;;;;;;1999.90;999.90;;;4.80;99.90;;;;;;5054600;28;20165;-39
2021/07/14 03:28:25;;;;;;;1999.90;999.90;;;4.70;99.90;;;;;;5054592;28;20158;-42
2021/07/14 03:30:55;;;;;;;1999.90;999.90;;;4.70;99.90;;;;;;5054295;28;20644;-39
2021/07/14 03:33:22;;;;;;;1999.90;999.90;;;4.70;99.90;;;;;;5054330;28;20172;-39
2021/07/14 03:35:49;;;;;;;1999.90;999.90;;;4.60;99.90;;;;;;5054458;28;20170;-39
2021/07/14 03:38:17;;;;;;;1999.90;999.90;;;4.70;99.90;;;;;;5054447;28;20161;-40
2021/07/14 03:40:45;;;;;;;1999.90;999.90;;;4.80;99.90;;;;;;5054192;28;20180;-39
2021/07/14 03:43:12;;;;;;;1999.90;999.90;;;4.70;99.90;;;;;;5054227;28;20165;-42
2021/07/14 03:45:41;;;;;;;1999.90;999.90;;;4.70;99.90;;;;;;5054245;28;20165;-41
2021/07/14 03:48:16;;;;;;;1999.90;999.90;;;4.70;99.90;;;;;;5054134;28;20170;-40
2021/07/14 03:50:47;;;;;;;1999.90;999.90;;;4.60;99.90;;;;;;5054228;28;20204;-41
2021/07/14 03:53:19;;;;;;;1999.90;999.90;;;4.50;99.90;;;;;;5054026;28;20161;-39
2021/07/14 03:55:48;;;;;;;1999.90;999.90;;;4.50;99.90;;;;;;5054053;28;20154;-39
2021/07/14 03:58:16;;;;;;;1999.90;999.90;;;4.50;99.90;;;;;;5053868;28;20227;-39
2021/07/14 04:00:43;;;;;;;1999.90;999.90;;;4.50;99.90;;;;;;5053721;28;20193;-39
2021/07/14 04:03:10;;;;;;;1999.90;999.90;;;4.50;99.90;;;;;;5053874;28;20194;-39
2021/07/14 04:05:44;;;;;;;1999.90;999.90;;;4.60;99.90;;;;;;5053790;28;20169;-39
2021/07/14 04:08:15;;;;;;;1999.90;999.90;;;4.80;99.90;;;;;;5053755;28;20157;-40
2021/07/14 04:10:42;;;;;;;1999.90;999.90;;;4.90;99.90;;;;;;5053706;28;20304;-40
2021/07/14 04:13:09;;;;;;;1999.90;999.90;;;4.90;99.90;;;;;;5053639;28;20165;-40
2021/07/14 04:15:36;;;;;;;1999.90;999.90;;;4.90;99.90;;;;;;5053528;28;20175;-40
2021/07/14 04:18:05;;;;;;;1999.90;999.90;;;4.80;99.90;;;;;;5053605;28;20162;-41
2021/07/14 04:20:33;;;;;;;1999.90;999.90;;;4.70;99.90;;;;;;5053401;28;20261;-39
2021/07/14 04:23:00;;;;;;;1999.90;999.90;;;4.70;99.90;;;;;;5053940;28;20169;-41
2021/07/14 04:25:27;;;;;;;1999.90;999.90;;;4.70;99.90;;;;;;5053536;28;20162;-39
2021/07/14 04:27:53;;;;;;;1999.90;999.90;;;4.70;99.90;;;;;;5053758;28;20165;-39
2021/07/14 04:30:20;;;;;;;1999.90;999.90;;;4.60;99.90;;;;;;5053484;28;20691;-41
2021/07/14 04:32:47;;;;;;;1999.90;999.90;;;4.60;99.90;;;;;;5053214;28;20169;-39
2021/07/14 04:35:14;;;;;;;1999.90;999.90;;;4.60;99.90;;;;;;5053255;28;20173;-39
2021/07/14 04:37:42;;;;;;;1999.90;999.90;;;4.50;99.90;;;;;;5053063;28;20189;-39
2021/07/14 04:40:10;;;;;;;1999.90;999.90;;;4.50;99.90;;;;;;5053110;28;20177;-39
2021/07/14 04:42:36;;;;;;;1999.90;999.90;;;4.50;99.90;;;;;;5053135;28;20166;-39
2021/07/14 04:45:04;;;;;;;1999.90;999.90;;;4.50;99.90;;;;;;5053063;28;20258;-41
2021/07/14 04:47:31;;;;;;;1999.90;999.90;;;4.50;99.90;;;;;;5053091;28;20165;-41
2021/07/14 04:49:57;;;;;;;1999.90;999.90;;;4.50;99.90;;;;;;5052957;28;20691;-39
2021/07/14 04:52:24;;;;;;;1999.90;999.90;;;4.50;99.90;;;;;;5052978;28;20165;-40
2021/07/14 04:54:51;;;;;;;1999.90;999.90;;;4.60;99.90;;;;;;5052808;28;20167;-40
2021/07/14 04:57:18;;;;;;;1999.90;999.90;;;4.70;99.90;;;;;;5052854;28;20162;-39
2021/07/14 04:59:45;;;;;;;1999.90;999.90;;;4.70;99.90;;;;;;5052778;28;20169;-40
2021/07/14 05:02:11;;;;;;;1999.90;999.90;;;4.80;99.90;;;;;;5052469;28;20250;-41
2021/07/14 05:04:38;;;;;;;1999.90;999.90;;;5.00;99.90;;;;;;5052750;28;20172;-39
2021/07/14 05:07:06;;;;;;;1999.90;999.90;;;5.00;99.90;;;;;;5052590;28;20184;-40
2021/07/14 05:09:32;;;;;;;1999.90;999.90;;;5.00;99.90;;;;;;5052848;28;20588;-39
2021/07/14 05:11:59;;;;;;;1999.90;999.90;;;4.90;99.90;;;;;;5052703;28;20697;-41
2021/07/14 05:14:26;;;;;;;1999.90;999.90;;;5.00;99.90;;;;;;5052574;28;20161;-40
2021/07/14 05:16:53;;;;;;;1999.90;999.90;;;4.90;99.90;;;;;;5052481;28;20169;-39
2021/07/14 05:19:20;;;;;;;1999.90;999.90;;;4.90;99.90;;;;;;5052584;28;20168;-41
2021/07/14 05:21:47;;;;;;;1999.90;999.90;;;5.00;99.90;;;;;;5052542;28;20224;-40
2021/07/14 05:24:14;;;;;;;1999.90;999.90;;;5.00;99.90;;;;;;5052575;28;20157;-40
2021/07/14 05:26:41;;;;;;;1999.90;999.90;;;4.90;99.90;;;;;;5052448;28;20171;-39
2021/07/14 05:29:07;;;;;;;1999.90;999.90;;;4.90;99.90;;;;;;5052424;28;20225;-42
2021/07/14 05:31:34;;;;;;;1999.90;999.90;;;4.80;99.90;;;;;;5052352;28;20185;-39
2021/07/14 05:34:02;;;;;;;1999.90;999.90;;;4.80;99.90;;;;;;5052478;28;20168;-39
2021/07/14 05:36:29;;;;;;;1999.90;999.90;;;4.70;99.90;;;;;;5052238;28;20183;-39
2021/07/14 05:38:58;;;;;;;1999.90;999.90;;;4.70;99.90;;;;;;5052263;28;20165;-40
2021/07/14 05:41:26;;;;;;;1999.90;999.90;;;4.60;99.90;;;;;;5052298;28;20174;-40
2021/07/14 05:43:53;;;;;;;1999.90;999.90;;;4.50;99.90;;;;;;5056234;28;20204;-39
2021/07/14 05:46:21;;;;;;;1999.90;999.90;;;4.60;99.90;;;;;;5056171;28;20197;-40
2021/07/14 05:48:49;;;;;;;1999.90;999.90;;;4.60;99.90;;;;;;5056069;28;20177;-40
2021/07/14 05:51:16;;;;;;;1999.90;999.90;;;4.60;99.90;;;;;;5056073;28;20647;-42
2021/07/14 05:53:43;;;;;;;1999.90;999.90;;;4.50;99.90;;;;;;5056106;28;20169;-41
2021/07/14 05:56:10;;;;;;;1999.90;999.90;;;4.40;99.90;;;;;;5056188;28;20170;-40
2021/07/14 05:58:37;;;;;;;1999.90;999.90;;;4.40;99.90;;;;;;5055948;28;20172;-40
2021/07/14 06:01:04;;;;;;;1999.90;999.90;;;4.40;99.90;;;;;;5055313;28;20248;-41
2021/07/14 06:03:31;;;;;;;1999.90;999.90;;;4.40;99.90;;;;;;5055960;28;20179;-40
2021/07/14 06:05:58;;;;;;;1999.90;999.90;;;4.30;99.90;;;;;;5056013;28;20161;-40
2021/07/14 06:08:24;;;;;;;1999.90;999.90;;;4.50;99.90;;;;;;5055322;28;20186;-45
2021/07/14 06:10:52;;;;;;;1999.90;999.90;;;4.40;99.90;;;;;;5055709;28;20662;-49
2021/07/14 06:13:19;;;;;;;1999.90;999.90;;;4.50;99.90;;;;;;5055741;28;20161;-45
2021/07/14 06:15:46;;;;;;;1999.90;999.90;;;4.50;99.90;;;;;;5055675;28;20169;-49
2021/07/14 06:18:13;;;;;;;1999.90;999.90;;;4.60;99.90;;;;;;5055743;28;20239;-59
2021/07/14 06:20:40;;;;;;;1999.90;999.90;;;4.80;99.90;;;;;;5056308;28;20174;-45
2021/07/14 06:23:07;;;;;;;1999.90;999.90;;;5.10;99.90;;;;;;5056943;28;20208;-45
2021/07/14 06:25:34;;;;;;;1999.90;999.90;;;5.20;99.90;;;;;;5055689;28;20621;-46
2021/07/14 06:28:02;;;;;;;1999.90;999.90;;;5.30;99.90;;;;;;5055708;28;20171;-46
2021/07/14 06:30:29;;;;;;;1999.90;999.90;;;5.30;99.90;;;;;;5055236;28;20343;-44
2021/07/14 06:32:56;;;;;;;1999.90;999.90;;;5.50;99.90;;;;;;5055384;28;20284;-48
2021/07/14 06:35:23;;;;;;;1999.90;999.90;;;5.50;99.90;;;;;;5055171;28;20184;-43
2021/07/14 06:37:51;;;;;;;1999.90;999.90;;;5.60;99.90;;;;;;5055128;28;20176;-47
2021/07/14 06:40:19;;;;;;;1999.90;999.90;;;5.60;99.90;;;;;;5055202;28;20163;-44
2021/07/14 06:42:46;;;;;;;1999.90;999.90;;;5.50;99.90;;;;;;5055157;28;20165;-44
2021/07/14 06:45:13;;;;;;;1999.90;999.90;;;5.50;99.90;;;;;;5055513;28;20166;-44
2021/07/14 06:47:41;;;;;;;1999.90;999.90;;;5.40;99.90;;;;;;5054764;28;20173;-44
2021/07/14 06:50:10;;;;;;;1999.90;999.90;;;5.50;99.90;;;;;;5054901;28;20211;-53
2021/07/14 06:52:37;;;;;;;1999.90;999.90;;;5.80;99.90;;;;;;5054482;28;20181;-44
2021/07/14 06:55:05;;;;;;;1999.90;999.90;;;5.80;99.90;;;;;;5054092;28;20174;-46
2021/07/14 06:57:32;;;;;;;1999.90;999.90;;;5.90;99.90;;;;;;5055116;28;20162;-57
2021/07/14 06:59:59;;;;;;;1999.90;999.90;;;5.90;99.90;;;;;;5054546;28;20183;-47
2021/07/14 07:02:26;;;;;;;1999.90;999.90;;;6.10;99.90;;;;;;5054270;28;20727;-43
2021/07/14 07:04:53;;;;;;;1999.90;999.90;;;6.20;99.90;;;;;;5054535;28;20168;-44
2021/07/14 07:07:20;;;;;;;1999.90;999.90;;;6.30;99.90;;;;;;5053896;28;20178;-44
2021/07/14 07:09:46;;;;;;;1999.90;999.90;;;6.30;99.90;;;;;;5053953;28;20211;-57
2021/07/14 07:12:13;;;;;;;1999.90;999.90;;;6.30;99.90;;;;;;5054328;28;20516;-49
2021/07/14 07:14:40;;;;;;;1999.90;999.90;;;6.40;99.90;;;;;;5054058;28;20176;-43
2021/07/14 07:17:07;;;;;;;1999.90;999.90;;;6.50;99.90;;;;;;5054210;28;20169;-44
2021/07/14 07:19:34;;;;;;;1999.90;999.90;;;6.60;99.90;;;;;;5054193;28;20787;-44
2021/07/14 07:22:01;;;;;;;1999.90;999.90;;;7.00;99.90;;;;;;5053869;28;20611;-58
2021/07/14 07:24:29;;;;;;;1999.90;999.90;;;8.60;99.90;;;;;;5053954;28;20191;-45
2021/07/14 07:26:56;;;;;;;1999.90;999.90;;;8.80;99.90;;;;;;5054160;28;20173;-49
2021/07/14 07:29:23;;;;;;;1999.90;999.90;;;9.00;99.90;;;;;;5053902;28;20189;-44
2021/07/14 07:31:51;;;;;;;1999.90;999.90;;;9.30;99.90;;;;;;5054033;28;20180;-46
2021/07/14 07:34:19;;;;;;;1999.90;999.90;;;9.10;99.90;;;;;;5053715;28;20263;-49
2021/07/14 07:36:46;;;;;;;1999.90;999.90;;;8.90;99.90;;;;;;5053646;28;20181;-45
2021/07/14 07:39:14;;;;;;;1999.90;999.90;;;8.70;99.90;;;;;;5053593;28;20176;-48
2021/07/14 07:41:42;;;;;;;1999.90;999.90;;;8.60;99.90;;;;;;5053846;28;20173;-44
2021/07/14 07:44:10;;;;;;;1999.90;999.90;;;8.40;99.90;;;;;;5053798;28;20212;-51
2021/07/14 07:46:39;;;;;;;1999.90;999.90;;;8.40;99.90;;;;;;5053640;28;20164;-46
2021/07/14 07:49:06;;;;;;;1999.90;999.90;;;8.30;99.90;;;;;;5053348;28;20679;-45
2021/07/14 07:51:34;;;;;;;1999.90;999.90;;;8.40;99.90;;;;;;5053113;28;20455;-45
2021/07/14 07:54:03;;;;;;;1999.90;999.90;;;8.40;99.90;;;;;;5053339;28;20407;-45
2021/07/14 07:56:33;;;;;;;1999.90;999.90;;;8.40;99.90;;;;;;5053338;28;20180;-46
2021/07/14 07:59:04;;;;;;;1999.90;999.90;;;8.50;99.90;;;;;;5053573;28;20157;-44
2021/07/14 08:12:27;;;;;;;1999.90;999.90;;;8.50;99.90;;;;;;5089480;28;21050;-53
2021/07/14 08:14:54;;;;;;;1999.90;999.90;;;9.10;99.90;;;;;;5089793;28;20183;-44
2021/07/14 08:17:21;;;;;;;1999.90;999.90;;;9.20;99.90;;;;;;5089904;28;20206;-59
2021/07/14 08:19:48;;;;;;;1999.90;999.90;;;9.60;99.90;;;;;;5089840;28;20195;-63
2021/07/14 08:22:15;;;;;;;1999.90;999.90;;;10.80;99.90;;;;;;5089653;28;20305;-56
2021/07/14 08:24:41;;;;;;;1999.90;999.90;;;11.50;99.90;;;;;;5089750;28;20202;-41
2021/07/14 08:27:08;;;;;;;1999.90;999.90;;;11.40;99.90;;;;;;5089787;28;20183;-41
2021/07/14 08:29:36;;;;;;;1999.90;999.90;;;11.10;99.90;;;;;;5089541;28;20174;-46
2021/07/14 08:32:02;;;;;;;1999.90;999.90;;;10.90;99.90;;;;;;5089652;28;20235;-43
2021/07/14 08:34:29;;;;;;;1999.90;999.90;;;10.90;99.90;;;;;;5089386;28;20630;-44
2021/07/14 08:36:58;;;;;;;1999.90;999.90;;;10.70;99.90;;;;;;5089630;28;20582;-46
2021/07/14 08:39:26;;;;;;;1999.90;999.90;;;10.70;99.90;;;;;;5087874;28;20164;-44
2021/07/14 08:41:56;;;;;;;1999.90;999.90;;;10.60;99.90;;;;;;5088977;28;20688;-43
2021/07/14 08:44:24;;;;;;;1999.90;999.90;;;10.40;99.90;;;;;;5089412;28;20175;-43
2021/07/14 08:46:52;;;;;;;1999.90;999.90;;;10.20;99.90;;;;;;5089054;28;20618;-46
2021/07/14 08:49:19;;;;;;;1999.90;999.90;;;10.20;99.90;;;;;;5089050;28;20172;-46
2021/07/14 08:51:47;;;;;;;1999.90;999.90;;;10.10;99.90;;;;;;5089069;28;20278;-42
2021/07/14 08:54:14;;;;;;;1999.90;999.90;;;10.20;99.90;;;;;;5089123;28;20647;-43
2021/07/14 08:56:40;;;;;;;1999.90;999.90;;;10.30;99.90;;;;;;5089000;28;20192;-43
2021/07/14 08:59:08;;;;;;;1999.90;999.90;;;10.40;99.90;;;;;;5089000;28;20168;-48
2021/07/14 09:01:35;;;;;;;1999.90;999.90;;;10.50;99.90;;;;;;5088948;28;20204;-44
2021/07/14 09:04:03;;;;;;;1999.90;999.90;;;10.60;99.90;;;;;;5087451;28;20417;-48
2021/07/14 09:06:31;;;;;;;1999.90;999.90;;;10.70;99.90;;;;;;5088963;28;20164;-44
2021/07/14 09:08:57;;;;;;;1999.90;999.90;;;11.10;99.90;;;;;;5088777;28;20707;-45
2021/07/14 09:11:24;;;;;;;1999.90;999.90;;;11.20;99.90;;;;;;5084612;28;20220;-43
2021/07/14 09:13:51;;;;;;;1999.90;999.90;;;11.20;99.90;;;;;;5075229;28;20165;-44
2021/07/14 09:16:33;;;;;;;1999.90;999.90;;;11.40;99.90;;;;;;5075430;28;20194;-49
2021/07/14 09:19:31;;;;;;;1999.90;999.90;;;11.60;99.90;;;;;;5075045;28;20161;-47
2021/07/14 09:21:59;;;;;;;1999.90;999.90;;;11.60;99.90;;;;;;5069581;28;20196;-43
2021/07/14 09:24:28;;;;;;;1999.90;999.90;;;11.70;99.90;;;;;;5075009;28;20205;-46
2021/07/14 09:26:56;;;;;;;1999.90;999.90;;;11.80;99.90;;;;;;5074730;28;20164;-42
2021/07/14 09:29:24;;;;;;;1999.90;999.90;;;11.90;99.90;;;;;;5074908;28;20169;-42
2021/07/14 09:31:51;;;;;;;1999.90;999.90;;;12.00;99.90;;;;;;5074779;28;20172;-45
2021/07/14 09:34:28;;;;;;;1999.90;999.90;;;12.40;99.90;;;;;;5074928;28;20171;-44
2021/07/14 09:37:02;;;;;;;1999.90;999.90;;;12.60;99.90;;;;;;5074665;28;20179;-44
2021/07/14 09:39:34;;;;;;;1999.90;999.90;;;12.60;99.90;;;;;;5074816;28;20167;-44
2021/07/14 09:42:06;;;;;;;1999.90;999.90;;;12.60;99.90;;;;;;5074803;28;20310;-41
2021/07/14 09:44:33;;;;;;;1999.90;999.90;;;12.60;99.90;;;;;;5074670;28;20282;-48
2021/07/14 09:47:22;;;;;;;1999.90;999.90;;;12.70;99.90;;;;;;5074678;28;20512;-44
2021/07/14 09:49:50;;;;;;;1999.90;999.90;;;12.70;99.90;;;;;;5074482;28;20165;-43
2021/07/14 09:52:20;;;;;;;1999.90;999.90;;;12.70;99.90;;;;;;5074573;28;20173;-44
2021/07/14 09:54:47;;;;;;;1999.90;999.90;;;12.90;99.90;;;;;;5074764;28;20153;-46
2021/07/14 09:57:19;;;;;;;1999.90;999.90;;;12.80;99.90;;;;;;5074586;28;20188;-44
2021/07/14 09:59:47;;;;;;;1999.90;999.90;;;12.80;99.90;;;;;;5074474;28;20165;-44
2021/07/14 10:02:15;;;;;;;1999.90;999.90;;;13.10;99.90;;;;;;5073945;28;20722;-46
2021/07/14 10:04:44;;;;;;;1999.90;999.90;;;13.00;99.90;;;;;;5074364;28;20192;-45
2021/07/14 10:07:19;;;;;;;1999.90;999.90;;;13.10;99.90;;;;;;5073927;28;20176;-46
2021/07/14 10:09:47;;;;;;;1999.90;999.90;;;13.20;99.90;;;;;;5074211;28;20159;-50
2021/07/14 10:12:35;;;;;;;1999.90;999.90;;;13.20;99.90;;;;;;5074045;28;20235;-53
2021/07/14 10:15:21;;;;;;;1999.90;999.90;;;13.40;99.90;;;;;;5073990;28;20572;-41
2021/07/14 10:17:50;;;;;;;1999.90;999.90;;;13.80;99.90;;;;;;5072889;28;20252;-43
2021/07/14 10:20:35;;;;;;;1999.90;999.90;;;13.80;99.90;;;;;;5073714;28;20416;-50
2021/07/14 10:23:09;;;;;;;1999.90;999.90;;;13.70;99.90;;;;;;5073156;28;20160;-46
2021/07/14 10:25:38;;;;;;;1999.90;999.90;;;13.80;99.90;;;;;;5073625;28;20251;-49
2021/07/14 10:28:09;;;;;;;1999.90;999.90;;;13.80;99.90;;;;;;5073971;28;20573;-50
2021/07/14 10:30:38;;;;;;;1999.90;999.90;;;14.00;99.90;;;;;;5073608;28;20165;-48
2021/07/14 10:33:05;;;;;;;1999.90;999.90;;;14.00;98.60;;;;;;5073368;28;20711;-47
2021/07/14 10:35:38;;;;;;;1999.90;999.90;;;14.10;99.90;;;;;;5073458;28;20208;-53
2021/07/14 10:38:11;;;;;;;1999.90;999.90;;;14.10;99.90;;;;;;5073761;28;20247;-53
2021/07/14 10:40:38;;;;;;;1999.90;999.90;;;14.20;99.70;;;;;;5072993;28;20184;-45
2021/07/14 10:43:05;;;;;;;1999.90;999.90;;;14.30;99.90;;;;;;5073358;28;20251;-53
2021/07/14 10:45:32;;;;;;;1999.90;999.90;;;14.30;98.40;;;;;;5073340;28;20169;-50
2021/07/14 10:47:59;;;;;;;1999.90;999.90;;;14.40;94.70;;;;;;5073191;28;20259;-50
2021/07/14 10:50:27;;;;;;;1999.90;999.90;;;14.40;96.70;;;;;;5073033;28;20181;-43
2021/07/14 10:52:53;;;;;;;1999.90;999.90;;;14.50;95.30;;;;;;5073498;28;20173;-46
2021/07/14 10:55:23;;;;;;;1999.90;999.90;;;14.50;95.50;;;;;;5073023;28;20168;-49
2021/07/14 10:57:54;;;;;;;1999.90;999.90;;;14.50;95.70;;;;;;5072231;28;20457;-53
2021/07/14 11:00:21;;;;;;;1999.90;999.90;;;14.60;97.60;;;;;;5073137;28;20208;-45
2021/07/14 11:02:52;;;;;;;1999.90;999.90;;;14.70;97.80;;;;;;5072988;28;20166;-49
2021/07/14 11:05:45;;;;;;;1999.90;999.90;;;14.80;96.20;;;;;;5073258;28;20209;-51
2021/07/14 11:08:48;;;;;;;1999.90;999.90;;;14.80;93.30;;;;;;5072395;28;20184;-45
2021/07/14 11:11:19;;;;;;;1999.90;999.90;;;14.80;91.30;;;;;;5072566;28;20219;-50
2021/07/14 11:14:04;;;;;;;1999.90;999.90;;;14.90;80.70;;;;;;5072918;28;20661;-60
2021/07/14 11:16:36;;;;;;;1999.90;999.90;;;15.10;91.30;;;;;;5073013;28;20160;-42
2021/07/14 11:19:14;;;;;;;1999.90;999.90;;;15.20;78.40;;;;;;5072883;28;20514;-41
2021/07/14 11:21:58;;;;;;;1999.90;999.90;;;15.20;72.30;;;;;;5072748;28;20231;-42
2021/07/14 11:24:38;;;;;;;1999.90;999.90;;;15.10;78.70;;;;;;5072454;28;20618;-42
2021/07/14 11:27:23;;;;;;;1999.90;999.90;;;15.10;86.50;;;;;;5072154;28;20179;-47
2021/07/14 11:29:54;;;;;;;1999.90;999.90;;;15.00;84.30;;;;;;5071799;28;20443;-45
2021/07/14 11:32:39;;;;;;;1999.90;999.90;;;15.00;82.50;;;;;;5072696;28;20503;-50
2021/07/14 11:35:40;;;;;;;1999.90;999.90;;;15.00;72.50;;;;;;5072321;28;20638;-45
2021/07/14 11:38:15;;;;;;;1999.90;999.90;;;15.00;77.70;;;;;;5071985;28;20404;-45
2021/07/14 11:40:45;;;;;;;1999.90;999.90;;;15.10;71.50;;;;;;5071261;28;20530;-49
2021/07/14 11:43:14;;;;;;;1999.90;999.90;;;15.20;76.90;;;;;;5072575;28;20149;-45
2021/07/14 11:45:46;;;;;;;1999.90;999.90;;;15.30;67.80;;;;;;5072508;28;20180;-48
2021/07/14 11:48:34;;;;;;;1999.90;999.90;;;15.30;73.60;;;;;;5072470;28;20180;-49
2021/07/14 11:51:19;;;;;;;1999.90;999.90;;;15.20;72.90;;;;;;5071805;28;20219;-46
2021/07/14 11:53:54;;;;;;;1999.90;999.90;;;15.20;79.80;;;;;;5069877;28;20399;-46
2021/07/14 11:56:26;;;;;;;1999.90;999.90;;;15.20;74.40;;;;;;5072325;28;20393;-41
2021/07/14 11:59:14;;;;;;;1999.90;999.90;;;15.10;72.70;;;;;;5072137;28;20177;-45
2021/07/14 12:01:45;;;;;;;1999.90;999.90;;;15.10;76.30;;;;;;5071018;28;20435;-40
2021/07/14 12:04:12;;;;;;;1999.90;999.90;;;15.10;76.90;;;;;;5072224;28;20210;-43
2021/07/14 12:06:43;;;;;;;1999.90;999.90;;;15.10;83.50;;;;;;5072194;28;20172;-42
2021/07/14 12:09:16;;;;;;;1999.90;999.90;;;15.10;76.40;;;;;;5071972;28;20628;-42
2021/07/14 12:12:18;;;;;;;1999.90;999.90;;;15.10;84.10;;;;;;5071042;28;20697;-43
2021/07/14 12:14:46;;;;;;;1999.90;999.90;;;15.20;84.70;;;;;;5070832;28;20397;-42
2021/07/14 12:17:26;;;;;;;1999.90;999.90;;;15.30;75.00;;;;;;5071776;28;20184;-41
2021/07/14 12:19:58;;;;;;;1999.90;999.90;;;15.30;74.40;;;;;;5071694;28;20176;-51
2021/07/14 12:22:33;;;;;;;1999.90;999.90;;;15.30;78.40;;;;;;5071977;28;20536;-43
2021/07/14 12:25:09;;;;;;;1999.90;999.90;;;15.30;78.10;;;;;;5072134;28;20145;-43
2021/07/14 12:27:39;;;;;;;1999.90;999.90;;;15.30;75.60;;;;;;5071783;28;20164;-43
2021/07/14 12:30:13;;;;;;;1999.90;999.90;;;15.30;74.60;;;;;;5071737;28;20215;-43
2021/07/14 12:32:53;;;;;;;1999.90;999.90;;;15.10;71.20;;;;;;5071611;28;20580;-42
2021/07/14 12:35:25;;;;;;;1999.90;999.90;;;15.20;76.40;;;;;;5071817;28;20240;-44
2021/07/14 12:37:54;;;;;;;1999.90;999.90;;;15.50;77.20;;;;;;5071835;28;20230;-44
2021/07/14 12:40:30;;;;;;;1999.90;999.90;;;15.60;76.40;;;;;;5071826;28;20192;-46